Time;durP1;ratioP1;P1;durP2;ratioP2;P2;SDS_P1;SDS_P2;PMS_P1;PMS_P2;Temp;Humidity;BMP_temperature;BMP_pressure;BME280_temperature;BME280_humidity;BME280_pressure;Samples;Min_cycle;Max_cycle;Signal;HPM_P1;HPM_P2
2023/01/20 00:01:33;;;;;;;37.10;24.35;;;;;;;2.31;81.33;100813.22;3604849;39;20058;-65
2023/01/20 00:03:59;;;;;;;39.28;24.50;;;;;;;2.29;81.75;100820.34;3604188;39;20046;-65
2023/01/20 00:06:27;;;;;;;37.63;24.45;;;;;;;2.23;81.95;100815.22;3604517;39;20059;-65
2023/01/20 00:08:56;;;;;;;41.35;26.45;;;;;;;2.30;81.84;100838.00;3604181;39;20056;-65
2023/01/20 00:11:21;;;;;;;38.72;24.60;;;;;;;2.30;82.17;100827.38;3604073;39;20050;-65
2023/01/20 00:13:48;;;;;;;40.50;24.95;;;;;;;2.29;81.69;100825.66;3602674;39;20043;-65
2023/01/20 00:16:13;;;;;;;41.35;25.98;;;;;;;2.26;81.86;100836.34;3604991;39;20043;-65
2023/01/20 00:18:40;;;;;;;40.30;24.63;;;;;;;2.22;81.41;100835.56;3608095;39;20432;-64
2023/01/20 00:21:10;;;;;;;41.42;24.85;;;;;;;2.06;81.50;100811.25;3606653;39;20095;-65
2023/01/20 00:23:37;;;;;;;41.00;24.15;;;;;;;2.20;82.23;100840.03;3594343;39;20055;-65
2023/01/20 00:26:10;;;;;;;38.72;25.33;;;;;;;2.18;81.16;100844.50;3601591;39;20075;-64
2023/01/20 00:28:36;;;;;;;38.25;23.45;;;;;;;2.22;82.00;100839.97;3603058;39;20059;-65
2023/01/20 00:31:25;;;;;;;39.72;23.05;;;;;;;2.22;82.02;100845.28;3603077;39;20183;-65
2023/01/20 00:33:54;;;;;;;38.50;22.13;;;;;;;2.18;81.63;100848.94;3606475;39;20425;-67
2023/01/20 00:36:22;;;;;;;36.65;22.52;;;;;;;2.16;81.63;100850.75;3608183;39;20054;-65
2023/01/20 00:38:48;;;;;;;44.97;25.23;;;;;;;2.14;81.31;100861.41;3607625;39;20057;-63
2023/01/20 00:41:15;;;;;;;40.17;22.77;;;;;;;2.14;81.24;100852.59;3606936;39;20074;-64
2023/01/20 00:43:42;;;;;;;40.03;23.63;;;;;;;1.93;82.07;100830.16;3602952;39;20055;-64
2023/01/20 00:46:08;;;;;;;42.17;24.00;;;;;;;2.09;82.75;100863.31;3598708;39;20051;-63
2023/01/20 00:48:35;;;;;;;40.83;24.85;;;;;;;2.11;82.46;100863.28;3606837;39;20083;-64
2023/01/20 00:51:02;;;;;;;38.72;23.23;;;;;;;2.12;82.92;100863.22;3605213;39;20075;-65
2023/01/20 00:53:28;;;;;;;42.60;24.42;;;;;;;2.15;83.01;100864.94;3604455;39;20048;-64
2023/01/20 00:55:54;;;;;;;42.40;24.52;;;;;;;2.19;82.26;100861.28;3604940;39;20673;-64
2023/01/20 00:58:20;;;;;;;42.55;25.15;;;;;;;2.17;81.07;100865.78;3604786;39;20402;-65
2023/01/20 01:00:48;;;;;;;41.30;24.40;;;;;;;2.17;82.13;100871.06;3603416;39;20102;-64
2023/01/20 01:03:14;;;;;;;48.22;26.90;;;;;;;1.89;82.15;100821.41;3598896;39;20378;-64
2023/01/20 01:05:40;;;;;;;38.58;24.25;;;;;;;2.19;81.86;100866.56;3604212;39;20051;-64
2023/01/20 01:08:05;;;;;;;40.38;24.27;;;;;;;2.18;82.13;100871.03;3600472;39;20074;-63
2023/01/20 01:10:31;;;;;;;40.42;25.05;;;;;;;2.22;81.91;100866.50;3601921;39;20090;-64
2023/01/20 01:13:02;;;;;;;40.80;23.70;;;;;;;2.20;81.92;100873.66;3607235;39;20330;-65
2023/01/20 01:15:28;;;;;;;42.92;23.80;;;;;;;2.20;82.37;100879.81;3605182;39;20063;-64
2023/01/20 01:17:57;;;;;;;43.45;24.42;;;;;;;2.22;82.36;100885.06;3606495;39;20473;-64
2023/01/20 01:20:25;;;;;;;40.85;22.67;;;;;;;2.21;81.69;100891.28;3603636;39;20371;-64
2023/01/20 01:22:50;;;;;;;39.08;22.40;;;;;;;1.90;81.40;100849.66;3603619;39;20058;-64
2023/01/20 01:25:17;;;;;;;38.60;22.13;;;;;;;2.10;81.94;100883.63;3604286;39;20059;-64
2023/01/20 01:27:42;;;;;;;41.58;22.27;;;;;;;2.13;81.39;100895.94;3603179;39;20069;-63
2023/01/20 01:30:09;;;;;;;38.13;22.15;;;;;;;2.14;81.41;100901.19;3604693;39;20046;-65
2023/01/20 01:32:35;;;;;;;38.00;21.75;;;;;;;2.13;81.97;100890.63;3606667;39;20577;-64
2023/01/20 01:35:00;;;;;;;38.17;21.17;;;;;;;2.04;82.22;100883.78;3607432;39;20063;-63
2023/01/20 01:37:27;;;;;;;40.67;22.65;;;;;;;2.15;81.84;100902.06;3606964;39;20087;-63
2023/01/20 01:39:53;;;;;;;41.28;21.42;;;;;;;2.12;81.51;100896.81;3603638;39;20059;-64
2023/01/20 01:42:24;;;;;;;40.65;21.48;;;;;;;2.12;81.82;100903.00;3607322;39;20073;-63
2023/01/20 01:45:09;;;;;;;38.28;21.50;;;;;;;2.14;81.60;100908.28;3601216;39;20060;-62
2023/01/20 01:47:39;;;;;;;41.15;23.40;;;;;;;2.12;81.69;100907.44;3604968;39;20047;-64
2023/01/20 01:50:10;;;;;;;41.22;21.75;;;;;;;2.10;82.42;100899.53;3606407;39;20055;-64
2023/01/20 01:52:42;;;;;;;42.03;21.70;;;;;;;2.14;82.38;100900.31;3605141;39;20066;-64
2023/01/20 01:55:10;;;;;;;41.85;20.63;;;;;;;2.03;82.09;100896.19;3607456;39;20089;-64
2023/01/20 01:57:36;;;;;;;40.10;21.13;;;;;;;2.09;81.79;100905.72;3604773;39;20056;-65
2023/01/20 02:00:05;;;;;;;49.88;23.13;;;;;;;2.07;82.15;100907.56;3605624;39;20109;-64
2023/01/20 02:02:32;;;;;;;39.53;21.80;;;;;;;2.12;82.54;100907.44;3602967;39;20047;-64
2023/01/20 02:04:58;;;;;;;41.22;21.58;;;;;;;2.14;82.89;100908.28;3603063;39;20480;-64
2023/01/20 02:07:25;;;;;;;42.70;21.88;;;;;;;2.17;81.77;100901.09;3604469;39;20116;-64
2023/01/20 02:09:51;;;;;;;41.63;21.60;;;;;;;2.18;82.84;100902.84;3603724;39;20128;-62
2023/01/20 02:12:21;;;;;;;40.40;21.45;;;;;;;2.20;82.29;100905.47;3602734;39;20051;-62
2023/01/20 02:14:57;;;;;;;39.40;21.38;;;;;;;2.23;82.58;100905.38;3605306;39;20056;-61
2023/01/20 02:17:41;;;;;;;39.90;20.58;;;;;;;2.22;82.61;100903.63;3603435;39;20067;-62
2023/01/20 02:20:40;;;;;;;42.58;21.25;;;;;;;2.20;82.55;100906.34;3604678;39;20130;-63
2023/01/20 02:23:21;;;;;;;41.67;20.95;;;;;;;2.18;81.96;100909.94;3604254;39;20047;-62
2023/01/20 02:26:27;;;;;;;37.60;20.73;;;;;;;2.16;81.63;100909.97;3604561;39;20054;-62
2023/01/20 02:29:43;;;;;;;38.97;20.52;;;;;;;2.13;81.95;100920.66;3604181;39;20394;-62
2023/01/20 02:32:33;;;;;;;38.70;20.33;;;;;;;2.12;81.87;100918.91;3607184;39;20059;-62
2023/01/20 02:35:02;;;;;;;37.95;20.35;;;;;;;2.07;81.51;100923.47;3605107;39;20063;-62
2023/01/20 02:38:04;;;;;;;45.17;20.45;;;;;;;2.11;82.27;100926.91;3601818;39;20067;-62
2023/01/20 02:40:52;;;;;;;39.80;20.70;;;;;;;2.13;82.49;100927.75;3587109;39;20359;-62
2023/01/20 02:43:44;;;;;;;42.72;21.17;;;;;;;2.09;82.30;100924.28;3603185;39;20057;-65
2023/01/20 02:46:30;;;;;;;36.63;18.80;;;;;;;2.07;82.04;100926.13;3603665;39;20054;-61
2023/01/20 02:49:50;;;;;;;40.33;20.02;;;;;;;2.04;81.24;100927.06;3607079;39;20051;-62
2023/01/20 02:52:31;;;;;;;40.83;19.85;;;;;;;2.06;81.99;100925.25;3588130;39;20127;-62
2023/01/20 02:55:06;;;;;;;40.45;20.38;;;;;;;2.06;82.29;100919.97;3606434;39;20430;-62
2023/01/20 02:58:13;;;;;;;39.42;20.05;;;;;;;2.04;82.11;100921.75;3606481;39;20098;-62
2023/01/20 03:00:49;;;;;;;41.08;19.52;;;;;;;2.09;82.61;100927.84;3605017;39;20054;-61
2023/01/20 03:03:25;;;;;;;42.10;20.80;;;;;;;2.07;82.14;100921.69;3606450;39;20057;-62
2023/01/20 03:06:00;;;;;;;39.65;19.15;;;;;;;2.13;81.85;100930.41;3609008;39;20132;-62
2023/01/20 03:08:32;;;;;;;37.85;19.45;;;;;;;2.14;81.75;100929.50;3605085;39;20280;-62
2023/01/20 03:11:05;;;;;;;35.10;17.77;;;;;;;2.08;81.16;100933.16;3607875;39;20160;-62
2023/01/20 03:13:42;;;;;;;39.65;19.88;;;;;;;2.05;81.00;100926.16;3607545;39;20389;-62
2023/01/20 03:16:19;;;;;;;33.90;18.85;;;;;;;1.96;81.62;100913.13;3607290;39;20059;-62
2023/01/20 03:18:45;;;;;;;38.28;18.98;;;;;;;2.02;81.70;100933.31;3606670;39;20062;-62
2023/01/20 03:21:13;;;;;;;37.67;19.15;;;;;;;2.01;81.27;100928.94;3602530;39;20374;-62
2023/01/20 03:23:46;;;;;;;36.50;18.73;;;;;;;1.96;82.47;100913.13;3605363;39;20055;-62
2023/01/20 03:26:16;;;;;;;41.00;19.65;;;;;;;2.05;81.99;100933.22;3608453;39;20055;-62
2023/01/20 03:28:44;;;;;;;39.17;19.30;;;;;;;1.99;81.60;100936.91;3606571;39;20059;-62
2023/01/20 03:31:31;;;;;;;40.42;19.02;;;;;;;2.00;81.11;100938.66;3604446;39;20445;-62
2023/01/20 03:34:03;;;;;;;42.15;21.15;;;;;;;1.98;81.67;100943.13;3604364;39;20075;-62
2023/01/20 03:36:32;;;;;;;37.35;18.80;;;;;;;1.80;82.62;100906.47;3605969;39;20050;-64
2023/01/20 03:39:00;;;;;;;37.75;19.08;;;;;;;2.07;82.49;100955.28;3605724;39;20066;-64
2023/01/20 03:41:41;;;;;;;43.40;21.33;;;;;;;2.08;82.25;100951.72;3601159;39;20077;-62
2023/01/20 03:44:17;;;;;;;40.45;20.42;;;;;;;2.09;82.08;100951.69;3607609;39;20059;-63
2023/01/20 03:47:05;;;;;;;39.47;20.38;;;;;;;1.79;82.41;100899.44;3604414;39;20069;-62
2023/01/20 03:49:54;;;;;;;38.70;19.65;;;;;;;2.15;81.70;100944.47;3604680;39;20379;-61
2023/01/20 03:52:44;;;;;;;45.97;21.02;;;;;;;2.14;81.83;100954.22;3605307;39;20267;-61
2023/01/20 03:55:22;;;;;;;41.00;20.42;;;;;;;2.17;82.40;100961.22;3606777;39;20491;-62
2023/01/20 03:58:03;;;;;;;39.63;21.20;;;;;;;2.18;82.55;100955.00;3604538;39;20708;-62
2023/01/20 04:00:35;;;;;;;43.00;22.17;;;;;;;2.15;81.22;100957.75;3607188;39;20063;-62
2023/01/20 04:03:12;;;;;;;45.75;24.08;;;;;;;2.09;80.75;100956.09;3608011;39;20059;-61
2023/01/20 04:05:41;;;;;;;46.58;23.95;;;;;;;2.04;81.81;100953.59;3606567;39;20127;-62
2023/01/20 04:08:11;;;;;;;46.67;24.67;;;;;;;2.11;81.01;100969.34;3607848;39;20482;-61
2023/01/20 04:10:46;;;;;;;45.28;24.90;;;;;;;2.07;81.41;100952.63;3605833;39;20318;-62
2023/01/20 04:13:13;;;;;;;46.75;24.02;;;;;;;2.10;80.98;100957.88;3606910;39;20364;-61
2023/01/20 04:15:44;;;;;;;44.42;23.58;;;;;;;2.08;80.78;100959.69;3606268;39;20059;-62
2023/01/20 04:18:20;;;;;;;43.47;23.25;;;;;;;2.11;80.77;100964.03;3607721;39;20059;-62
2023/01/20 04:20:55;;;;;;;41.72;22.50;;;;;;;2.08;82.02;100965.84;3605787;39;20054;-63
2023/01/20 04:23:51;;;;;;;44.92;22.30;;;;;;;2.02;81.68;100963.34;3604955;39;20060;-61
2023/01/20 04:26:16;;;;;;;40.08;22.40;;;;;;;2.01;81.75;100958.97;3603108;39;20952;-63
2023/01/20 04:28:42;;;;;;;41.60;22.50;;;;;;;2.00;81.06;100959.88;3602823;39;20055;-61
2023/01/20 04:31:08;;;;;;;43.55;22.60;;;;;;;2.02;81.99;100960.69;3604946;39;20058;-62
2023/01/20 04:33:37;;;;;;;45.40;22.77;;;;;;;2.05;81.90;100955.31;3607305;39;20066;-63
2023/01/20 04:36:03;;;;;;;44.28;24.13;;;;;;;2.04;81.00;100958.88;3607288;39;20424;-62
2023/01/20 04:38:29;;;;;;;45.92;24.02;;;;;;;2.04;80.87;100964.19;3603083;39;20047;-62
2023/01/20 04:40:55;;;;;;;43.25;23.17;;;;;;;2.05;82.17;100960.63;3602643;39;20055;-62
2023/01/20 04:43:20;;;;;;;41.75;22.20;;;;;;;2.06;81.04;100964.13;3606696;39;20058;-63
2023/01/20 04:45:46;;;;;;;46.10;22.83;;;;;;;2.08;81.54;100963.19;3605598;39;20089;-62
2023/01/20 04:48:12;;;;;;;38.05;21.00;;;;;;;2.09;80.38;100972.91;3603372;39;20055;-62
2023/01/20 04:50:39;;;;;;;41.80;21.95;;;;;;;2.01;80.54;100961.59;3607307;39;20057;-62
2023/01/20 04:53:07;;;;;;;41.15;21.85;;;;;;;2.01;81.67;100966.91;3605705;39;20059;-61
2023/01/20 04:55:34;;;;;;;42.60;21.92;;;;;;;1.80;81.22;100936.47;3607775;39;20413;-62
2023/01/20 04:57:59;;;;;;;37.22;20.30;;;;;;;2.04;80.42;100980.09;3604220;39;21389;-62
2023/01/20 05:00:25;;;;;;;41.25;22.92;;;;;;;2.07;81.23;100976.50;3606581;39;20063;-61
2023/01/20 05:02:50;;;;;;;40.78;22.00;;;;;;;2.04;81.16;100977.44;3605021;39;20051;-62
2023/01/20 05:05:16;;;;;;;38.00;21.77;;;;;;;2.04;80.76;100979.22;3605070;39;20047;-62
2023/01/20 05:07:42;;;;;;;46.38;22.95;;;;;;;1.75;80.82;100919.84;3606627;39;20051;-62
2023/01/20 05:10:08;;;;;;;44.30;23.02;;;;;;;2.08;81.54;100979.09;3607016;39;20043;-62
2023/01/20 05:12:35;;;;;;;43.72;22.45;;;;;;;2.09;81.34;100977.31;3605219;39;20051;-62
2023/01/20 05:15:00;;;;;;;43.60;23.10;;;;;;;2.05;80.74;100987.13;3606804;39;20054;-61
2023/01/20 05:17:26;;;;;;;42.95;23.00;;;;;;;2.05;80.40;100980.97;3606670;39;20100;-62
2023/01/20 05:19:52;;;;;;;46.95;23.75;;;;;;;2.09;80.51;100982.63;3602768;39;20055;-62
2023/01/20 05:22:17;;;;;;;42.70;21.48;;;;;;;2.06;80.96;100988.00;3604611;39;20886;-61
2023/01/20 05:24:43;;;;;;;40.22;21.17;;;;;;;2.05;79.65;100976.53;3605651;39;20062;-61
2023/01/20 05:27:08;;;;;;;42.00;22.00;;;;;;;2.06;80.33;100988.91;3609527;39;20047;-63
2023/01/20 05:29:34;;;;;;;41.92;21.25;;;;;;;2.03;80.29;100994.28;3608785;39;20066;-62
2023/01/20 05:31:59;;;;;;;41.38;20.55;;;;;;;2.03;79.79;100996.91;3604917;39;20070;-62
2023/01/20 05:34:25;;;;;;;41.80;20.95;;;;;;;2.03;81.03;100993.38;3606917;39;20054;-61
2023/01/20 05:36:53;;;;;;;43.30;21.77;;;;;;;2.07;80.84;100995.06;3605898;39;20290;-62
2023/01/20 05:39:19;;;;;;;52.47;25.63;;;;;;;2.06;80.49;100988.91;3605668;39;20057;-62
2023/01/20 05:41:45;;;;;;;39.03;20.70;;;;;;;2.02;80.45;100987.19;3608418;39;20070;-62
2023/01/20 05:44:12;;;;;;;46.15;22.13;;;;;;;2.04;80.36;100985.41;3608211;39;20084;-62
2023/01/20 05:46:38;;;;;;;47.30;21.75;;;;;;;2.02;80.68;100992.50;3608855;39;20143;-62
2023/01/20 05:49:04;;;;;;;39.30;20.00;;;;;;;2.04;80.10;100989.84;3606300;39;20047;-62
2023/01/20 05:51:30;;;;;;;43.17;20.58;;;;;;;2.04;80.11;100990.69;3609541;39;20062;-62
2023/01/20 05:53:56;;;;;;;37.10;19.65;;;;;;;2.04;80.00;100998.66;3607740;39;20141;-62
2023/01/20 05:56:22;;;;;;;42.65;20.30;;;;;;;2.02;80.81;100996.94;3606669;39;20418;-62
2023/01/20 05:58:49;;;;;;;42.35;20.75;;;;;;;1.96;79.80;100987.34;3605266;39;20061;-62
2023/01/20 06:01:15;;;;;;;39.42;21.30;;;;;;;2.01;80.61;101000.50;3605107;39;20120;-62
2023/01/20 06:03:41;;;;;;;34.58;18.98;;;;;;;2.06;80.32;101007.44;3606281;39;20102;-62
2023/01/20 06:06:13;;;;;;;40.08;20.80;;;;;;;2.06;80.07;101002.16;3607482;39;20294;-62
2023/01/20 06:08:38;;;;;;;38.22;19.20;;;;;;;2.05;80.57;101007.47;3607882;39;20051;-62
2023/01/20 06:11:04;;;;;;;36.67;19.38;;;;;;;2.03;80.92;101009.28;3607227;39;20067;-61
2023/01/20 06:13:30;;;;;;;42.67;19.50;;;;;;;2.05;80.55;101008.34;3606429;39;20058;-62
2023/01/20 06:15:56;;;;;;;40.58;21.55;;;;;;;2.06;80.58;101009.22;3594699;39;20075;-61
2023/01/20 06:18:23;;;;;;;39.15;20.63;;;;;;;1.92;80.09;100993.63;3605297;39;20074;-62
2023/01/20 06:20:50;;;;;;;39.90;19.73;;;;;;;2.14;80.13;101019.66;3608428;39;20125;-62
2023/01/20 06:23:15;;;;;;;39.40;19.88;;;;;;;2.05;80.20;101007.47;3609704;39;20163;-62
2023/01/20 06:25:41;;;;;;;41.15;20.25;;;;;;;2.11;79.44;101019.72;3608709;39;20456;-62
2023/01/20 06:28:07;;;;;;;39.13;19.73;;;;;;;2.03;80.44;101023.44;3606163;39;20054;-62
2023/01/20 06:30:33;;;;;;;39.45;20.13;;;;;;;2.09;80.52;101025.94;3605132;39;20390;-62
2023/01/20 06:32:59;;;;;;;40.95;20.52;;;;;;;2.06;80.06;101019.81;3608201;39;20081;-62
2023/01/20 06:35:26;;;;;;;39.35;20.08;;;;;;;2.04;80.12;101016.34;3609354;39;20065;-62
2023/01/20 06:37:51;;;;;;;37.42;19.73;;;;;;;2.13;80.40;101026.75;3608251;39;20063;-62
2023/01/20 06:40:17;;;;;;;41.15;19.00;;;;;;;2.09;80.82;101023.28;3608821;39;20086;-62
2023/01/20 06:42:43;;;;;;;37.35;18.67;;;;;;;2.12;80.22;101021.44;3609692;39;20057;-62
2023/01/20 06:45:09;;;;;;;36.20;18.60;;;;;;;2.08;80.44;101020.66;3603375;39;20060;-62
2023/01/20 06:47:35;;;;;;;35.35;18.13;;;;;;;2.09;80.72;101020.63;3609312;39;20051;-61
2023/01/20 06:50:00;;;;;;;36.03;18.92;;;;;;;2.07;79.69;101014.50;3606413;39;20115;-63
2023/01/20 06:52:26;;;;;;;37.15;18.77;;;;;;;2.09;80.67;101004.72;3609311;39;20565;-63
2023/01/20 06:54:52;;;;;;;37.13;18.75;;;;;;;2.09;80.84;101003.84;3607509;39;20382;-64
2023/01/20 06:57:18;;;;;;;41.88;20.55;;;;;;;2.08;80.55;101002.97;3606247;39;20043;-62
2023/01/20 06:59:44;;;;;;;38.30;19.23;;;;;;;2.09;80.62;101004.72;3607889;39;20055;-63
2023/01/20 07:02:12;;;;;;;36.97;19.08;;;;;;;2.12;81.57;101014.38;3608292;39;20342;-62
2023/01/20 07:04:38;;;;;;;37.40;19.38;;;;;;;2.08;79.84;101007.41;3605232;39;20046;-63
2023/01/20 07:07:03;;;;;;;38.65;20.60;;;;;;;2.12;81.54;101009.06;3605576;39;20098;-64
2023/01/20 07:09:29;;;;;;;36.97;19.80;;;;;;;2.09;80.88;101018.00;3608418;39;20062;-64
2023/01/20 07:11:55;;;;;;;37.17;19.95;;;;;;;2.04;80.19;101008.38;3603421;39;20077;-63
2023/01/20 07:14:21;;;;;;;37.78;19.05;;;;;;;2.04;81.32;101008.38;3606319;39;20059;-63
2023/01/20 07:16:46;;;;;;;37.80;19.80;;;;;;;2.02;81.84;101008.41;3606297;39;20396;-61
2023/01/20 07:19:12;;;;;;;34.38;19.02;;;;;;;2.04;81.28;101013.69;3609477;39;20069;-63
2023/01/20 07:21:38;;;;;;;34.05;18.92;;;;;;;2.03;80.87;101018.13;3609859;39;20051;-63
2023/01/20 07:24:04;;;;;;;40.55;20.25;;;;;;;2.03;80.79;101018.13;3606566;39;20163;-63
2023/01/20 07:26:30;;;;;;;30.23;17.92;;;;;;;2.03;81.41;101020.78;3608469;39;20057;-64
2023/01/20 07:28:59;;;;;;;35.22;18.52;;;;;;;2.03;81.59;101026.09;3604681;39;20303;-63
2023/01/20 07:31:28;;;;;;;37.92;19.83;;;;;;;2.01;82.02;101021.72;3606450;39;20054;-63
2023/01/20 07:33:55;;;;;;;36.88;19.02;;;;;;;1.87;82.15;100998.16;3608083;39;20119;-63
2023/01/20 07:36:21;;;;;;;38.22;18.67;;;;;;;2.01;82.79;101027.88;3605093;39;20051;-63
2023/01/20 07:38:49;;;;;;;35.78;19.42;;;;;;;2.05;81.55;101037.50;3605360;39;20091;-62
2023/01/20 07:41:18;;;;;;;35.50;18.35;;;;;;;2.07;82.25;101037.50;3605205;39;20059;-63
2023/01/20 07:43:46;;;;;;;32.63;18.05;;;;;;;1.84;81.49;101009.72;3606354;39;20051;-63
2023/01/20 07:46:13;;;;;;;39.00;20.40;;;;;;;1.81;81.76;101003.63;3608940;39;20079;-63
2023/01/20 07:48:39;;;;;;;38.30;19.98;;;;;;;2.09;82.30;101049.81;3607948;39;20042;-63
2023/01/20 07:51:08;;;;;;;34.80;18.75;;;;;;;2.09;81.91;101046.25;3609475;39;20050;-62
2023/01/20 07:53:37;;;;;;;34.65;19.38;;;;;;;2.11;82.71;101054.19;3605707;39;20115;-62
2023/01/20 07:56:15;;;;;;;37.22;19.58;;;;;;;2.12;81.79;101061.22;3605349;39;20063;-64
2023/01/20 07:58:44;;;;;;;30.73;18.92;;;;;;;2.13;82.63;101068.28;3605059;39;20497;-63
2023/01/20 08:01:31;;;;;;;35.25;19.30;;;;;;;2.10;82.45;101069.22;3603595;39;20047;-62
2023/01/20 08:04:02;;;;;;;33.33;18.42;;;;;;;1.90;82.53;101027.25;3604773;39;20059;-62
2023/01/20 08:06:29;;;;;;;37.40;20.48;;;;;;;2.17;82.48;101070.81;3609837;39;20043;-63
2023/01/20 08:08:58;;;;;;;35.40;18.98;;;;;;;2.16;81.76;101069.09;3608520;39;20114;-63
2023/01/20 08:11:23;;;;;;;36.28;19.90;;;;;;;2.17;82.21;101064.66;3611527;39;20078;-63
2023/01/20 08:13:49;;;;;;;37.22;20.23;;;;;;;2.18;82.18;101077.00;3604761;39;20051;-63
2023/01/20 08:16:17;;;;;;;38.17;20.50;;;;;;;2.21;83.02;101071.63;3606666;39;20061;-64
2023/01/20 08:18:44;;;;;;;35.08;19.08;;;;;;;2.24;82.04;101071.56;3609261;39;20092;-64
2023/01/20 08:21:23;;;;;;;36.72;20.38;;;;;;;2.27;82.25;101066.19;3607711;39;20077;-63
2023/01/20 08:23:50;;;;;;;37.03;19.75;;;;;;;2.23;82.51;101070.69;3608041;39;20058;-64
2023/01/20 08:26:18;;;;;;;33.47;18.52;;;;;;;2.26;82.45;101069.75;3608244;39;20644;-64
2023/01/20 08:28:43;;;;;;;31.33;18.42;;;;;;;2.21;81.83;101066.31;3606579;39;20050;-63
2023/01/20 08:31:14;;;;;;;33.10;18.33;;;;;;;2.25;82.50;101078.59;3606832;39;20055;-62
2023/01/20 08:33:41;;;;;;;33.58;18.40;;;;;;;2.22;81.86;101079.56;3605180;39;20058;-63
2023/01/20 08:36:12;;;;;;;31.25;17.95;;;;;;;2.30;82.41;101076.72;3606966;39;20051;-63
2023/01/20 08:38:39;;;;;;;31.58;17.55;;;;;;;2.29;81.94;101074.97;3607463;39;20055;-64
2023/01/20 08:41:21;;;;;;;30.33;17.30;;;;;;;2.27;82.31;101082.97;3609287;39;20419;-64
2023/01/20 08:43:49;;;;;;;29.38;17.10;;;;;;;2.31;82.51;101086.41;3603006;39;20047;-63
2023/01/20 08:46:19;;;;;;;30.70;17.20;;;;;;;2.18;82.43;101053.13;3608573;39;20051;-63
2023/01/20 08:48:46;;;;;;;27.25;17.08;;;;;;;2.31;81.93;101073.16;3605669;39;20382;-63
2023/01/20 08:51:20;;;;;;;26.10;16.50;;;;;;;2.18;82.29;101069.03;3608945;39;20066;-64
2023/01/20 08:53:47;;;;;;;29.40;17.55;;;;;;;2.32;82.05;101085.53;3609126;39;20393;-63
2023/01/20 08:56:13;;;;;;;28.38;16.60;;;;;;;2.29;81.52;101081.16;3609076;39;20067;-63
2023/01/20 08:58:40;;;;;;;26.63;16.35;;;;;;;2.26;82.06;101080.34;3604976;39;20093;-65
2023/01/20 09:01:21;;;;;;;26.55;16.55;;;;;;;2.26;81.58;101085.66;3605034;39;20059;-63
2023/01/20 09:03:48;;;;;;;26.92;15.60;;;;;;;2.23;82.18;101075.13;3606368;39;20054;-64
2023/01/20 09:06:14;;;;;;;27.27;15.93;;;;;;;2.26;81.74;101083.00;3604179;39;20047;-63
2023/01/20 09:08:40;;;;;;;27.98;15.60;;;;;;;2.25;81.23;101089.19;3608751;39;20047;-63
2023/01/20 09:11:16;;;;;;;25.48;16.52;;;;;;;2.25;81.93;101089.19;3609535;39;21112;-63
2023/01/20 09:13:42;;;;;;;29.48;16.80;;;;;;;2.28;82.97;101094.44;3606426;39;20115;-63
2023/01/20 09:16:15;;;;;;;29.88;16.77;;;;;;;2.12;81.64;101058.56;3607183;39;20058;-64
2023/01/20 09:18:41;;;;;;;28.92;17.17;;;;;;;2.27;81.83;101101.53;3608275;39;20079;-64
2023/01/20 09:21:09;;;;;;;28.40;16.73;;;;;;;2.05;82.43;101050.75;3606882;39;20047;-64
2023/01/20 09:23:38;;;;;;;28.45;17.00;;;;;;;2.30;81.46;101090.84;3606507;39;20073;-64
2023/01/20 09:26:06;;;;;;;30.58;16.92;;;;;;;2.32;82.40;101090.81;3605778;39;20405;-64
2023/01/20 09:28:32;;;;;;;27.80;16.55;;;;;;;2.22;82.31;101068.06;3608296;39;20120;-65
2023/01/20 09:31:08;;;;;;;28.52;17.75;;;;;;;2.28;82.47;101089.13;3608675;39;20091;-63
2023/01/20 09:33:37;;;;;;;26.73;16.95;;;;;;;2.26;81.90;101089.19;3606968;39;20119;-64
2023/01/20 09:36:06;;;;;;;29.45;17.77;;;;;;;2.29;82.63;101093.56;3604610;39;20256;-64
2023/01/20 09:44:56;;;;;;;26.80;15.70;;;;;;;2.28;82.56;101110.34;3610181;39;20347;-64
2023/01/20 09:47:45;;;;;;;26.65;16.27;;;;;;;2.28;82.60;101116.56;3605623;39;20698;-65
2023/01/20 09:54:32;;;;;;;25.88;15.38;;;;;;;2.28;82.22;101113.00;3608287;39;20126;-63
2023/01/20 09:57:02;;;;;;;26.77;15.75;;;;;;;2.12;82.16;101087.75;3608031;39;20063;-64
2023/01/20 09:59:47;;;;;;;23.77;15.30;;;;;;;2.26;82.53;101114.84;3598528;39;20051;-65
2023/01/20 10:02:32;;;;;;;27.00;15.15;;;;;;;2.18;82.68;101108.81;3607675;39;20095;-66
2023/01/20 10:05:06;;;;;;;21.55;13.80;;;;;;;2.20;82.04;101110.53;3604031;39;20062;-64
2023/01/20 10:07:57;;;;;;;21.02;13.75;;;;;;;2.22;82.16;101102.53;3607263;39;20067;-65
2023/01/20 10:10:41;;;;;;;21.73;13.95;;;;;;;2.18;82.65;101101.72;3603726;39;20054;-65
2023/01/20 10:13:19;;;;;;;19.65;12.52;;;;;;;2.13;82.08;101086.84;3607289;39;20047;-65
2023/01/20 10:15:54;;;;;;;18.75;12.15;;;;;;;2.18;83.11;101093.78;3606501;39;20046;-66
2023/01/20 10:18:50;;;;;;;20.13;12.40;;;;;;;2.17;82.89;101093.81;3605622;39;20387;-65
2023/01/20 10:21:31;;;;;;;19.20;12.07;;;;;;;2.19;82.52;101100.84;3607410;39;20302;-65
2023/01/20 10:24:15;;;;;;;17.63;11.85;;;;;;;2.16;82.17;101100.91;3607516;39;20120;-65
2023/01/20 10:27:03;;;;;;;20.42;12.23;;;;;;;2.22;83.13;101102.53;3609311;39;20099;-65
2023/01/20 10:29:40;;;;;;;19.08;11.40;;;;;;;2.24;82.94;101098.06;3607506;39;20055;-64
2023/01/20 10:32:36;;;;;;;19.13;11.82;;;;;;;2.22;82.27;101105.19;3605814;39;20461;-65
2023/01/20 10:35:25;;;;;;;19.33;11.15;;;;;;;2.22;82.48;101097.22;3600365;39;20047;-64
2023/01/20 10:37:57;;;;;;;15.43;10.73;;;;;;;2.21;82.42;101093.72;3607750;39;20051;-64
2023/01/20 10:40:33;;;;;;;17.15;10.77;;;;;;;2.22;82.58;101095.47;3607942;39;20275;-64
2023/01/20 10:43:16;;;;;;;17.38;11.25;;;;;;;2.26;83.37;101097.13;3606036;39;20087;-64
2023/01/20 10:46:32;;;;;;;15.68;10.73;;;;;;;2.29;82.89;101097.06;3607765;39;20067;-64
2023/01/20 10:49:24;;;;;;;16.55;11.40;;;;;;;2.31;82.53;101094.38;3607081;39;20047;-64
2023/01/20 10:52:24;;;;;;;16.23;10.75;;;;;;;2.27;82.70;101093.56;3604801;39;20051;-63
2023/01/20 10:55:33;;;;;;;16.42;10.70;;;;;;;2.29;82.97;101101.50;3606904;39;20104;-64
2023/01/20 10:58:27;;;;;;;16.17;11.00;;;;;;;2.31;82.81;101094.38;3607141;39;20074;-65
2023/01/20 11:00:55;;;;;;;15.90;10.32;;;;;;;2.32;81.81;101096.13;3608525;39;20059;-64
2023/01/20 11:03:24;;;;;;;16.95;11.00;;;;;;;2.31;82.72;101083.75;3607303;39;20385;-64
2023/01/20 11:05:51;;;;;;;15.90;10.55;;;;;;;2.35;82.23;101096.06;3607257;39;20086;-64
2023/01/20 11:08:26;;;;;;;15.23;9.93;;;;;;;2.42;83.00;101102.94;3610791;39;20109;-64
2023/01/20 11:10:58;;;;;;;16.27;11.20;;;;;;;2.43;82.54;101093.22;3609386;39;20058;-64
2023/01/20 11:13:25;;;;;;;17.70;11.02;;;;;;;2.42;82.44;101092.34;3608970;39;20070;-64
2023/01/20 11:15:58;;;;;;;14.73;10.38;;;;;;;2.42;81.70;101087.03;3609163;39;20059;-63
2023/01/20 11:18:28;;;;;;;15.15;10.75;;;;;;;2.45;82.80;101094.94;3607758;39;20067;-64
2023/01/20 11:21:07;;;;;;;15.07;10.95;;;;;;;2.25;82.21;101063.56;3608911;39;20049;-64
2023/01/20 11:23:51;;;;;;;15.15;10.80;;;;;;;2.51;82.06;101107.19;3608934;39;20081;-63
2023/01/20 11:26:26;;;;;;;12.85;10.18;;;;;;;2.44;82.03;101090.53;3608605;39;20087;-63
2023/01/20 11:29:21;;;;;;;13.88;9.85;;;;;;;2.52;81.83;101104.47;3609162;39;20046;-64
2023/01/20 11:31:50;;;;;;;;;;;;;;;2.52;82.24;101099.16;3607207;39;20131;-63
2023/01/20 11:34:24;;;;;;;13.68;9.43;;;;;;;2.55;82.14;101100.88;3611022;39;20197;-64
2023/01/20 11:37:18;;;;;;;14.65;10.00;;;;;;;2.58;82.27;101102.59;3610739;39;20057;-63
2023/01/20 11:39:52;;;;;;;14.85;10.80;;;;;;;2.63;81.77;101103.31;3610345;39;20058;-64
2023/01/20 11:42:23;;;;;;;14.38;10.40;;;;;;;2.66;81.80;101111.22;3608551;39;20062;-64
2023/01/20 11:45:01;;;;;;;14.90;10.68;;;;;;;2.55;81.60;101088.47;3605554;39;20051;-63
2023/01/20 11:47:34;;;;;;;14.70;10.23;;;;;;;2.68;81.47;101098.78;3609112;39;21246;-64
2023/01/20 11:50:05;;;;;;;15.40;10.68;;;;;;;2.74;80.65;101103.94;3608234;39;20055;-64